This is the latest recevied weather packets stored in our database for station/object WA7CUG. If no packets are shown the sender has not sent any weather packets the latest 1 day(s).
| Time | Temp. | Humidity | Pressure | Rain* | Wind** | Luminosity | Snow |
|---|---|---|---|---|---|---|---|
| 1778017949 | 27.78° C | 29% | 1011.1 hPa | 0 mm | 0.89 m/s, 98° | 644 W/m² | - |
| 1778017647 | 27.78° C | 28% | 1011.2 hPa | 0 mm | 0.45 m/s, 114° | 649 W/m² | - |
| 1778017344 | 27.78° C | 26% | 1011.4 hPa | 0 mm | 1.34 m/s, 159° | 655 W/m² | - |
| 1778017041 | 27.78° C | 28% | 1011.3 hPa | 0 mm | 0.45 m/s, 145° | 660 W/m² | - |
| 1778016739 | 28.33° C | 25% | 1011.4 hPa | 0 mm | 0.89 m/s, 123° | 664 W/m² | - |
| 1778016434 | 28.33° C | 27% | 1011.4 hPa | 0 mm | 0.45 m/s, 116° | 669 W/m² | - |
| 1778016132 | 27.78° C | 28% | 1011.7 hPa | 0 mm | 0.45 m/s, 188° | 673 W/m² | - |
| 1778015829 | 27.78° C | 32% | 1011.5 hPa | 0 mm | 0.45 m/s, 114° | 676 W/m² | - |
| 1778015526 | 27.22° C | 29% | 1011.5 hPa | 0 mm | 0 m/s | 681 W/m² | - |
| 1778015222 | 27.78° C | 28% | 1011.8 hPa | 0 mm | 1.34 m/s, 151° | 683 W/m² | - |
| 1778014919 | 28.89° C | 26% | 1012 hPa | 0 mm | 0 m/s | 685 W/m² | - |
| 1778014617 | 27.78° C | 30% | 1011.9 hPa | 0 mm | 0 m/s | 689 W/m² | - |
| 1778014315 | 28.33° C | 28% | 1012 hPa | 0 mm | 0.45 m/s, 177° | 690 W/m² | - |
| 1778014011 | 27.22° C | 30% | 1012.1 hPa | 0 mm | 0.89 m/s, 120° | 694 W/m² | - |
| 1778013709 | 27.22° C | 33% | 1012.3 hPa | 0 mm | 0.45 m/s, 146° | 694 W/m² | - |
| 1778013406 | 28.33° C | 29% | 1012.1 hPa | 0 mm | 0.89 m/s, 159° | 695 W/m² | - |
| 1778013102 | 27.78° C | 30% | 1012.3 hPa | 0 mm | 0 m/s | 696 W/m² | - |
| 1778012798 | 27.78° C | 28% | 1012.2 hPa | 0 mm | 0.45 m/s, 110° | 695 W/m² | - |
| 1778012494 | 27.22° C | 28% | 1012.2 hPa | 0 mm | 1.79 m/s, 243° | 697 W/m² | - |
| 1778012191 | 27.22° C | 28% | 1012.4 hPa | 0 mm | 0.45 m/s, 179° | 697 W/m² | - |
| 1778011889 | 26.67° C | 37% | 1012.3 hPa | 0 mm | 0.45 m/s, 166° | 696 W/m² | - |
| 1778011587 | 26.11° C | 35% | 1012.3 hPa | 0 mm | 0.45 m/s, 181° | 698 W/m² | - |
| 1778011283 | 26.67° C | 29% | 1012.3 hPa | 0 mm | 0 m/s | 695 W/m² | - |
| 1778010974 | 26.11° C | 32% | 1012.5 hPa | 0 mm | 0.45 m/s, 154° | 695 W/m² | - |
| 1778010672 | 26.11° C | 31% | 1012.4 hPa | 0 mm | 0.45 m/s, 180° | 693 W/m² | - |
* Rain latest hour (hover to see other rain measurements)
** Current wind speed in m/s (hover to see current wind gust speed)